sensor_id;sensor_type;location;lat;lon;timestamp;pressure;altitude;pressure_sealevel;temperature;humidity
32181;BME280;19172;51.504;3.894;2022-09-09T00:00:14;100597.06;;;24.49;94.09
32181;BME280;19172;51.504;3.894;2022-09-09T00:03:12;100601.16;;;24.56;94.11
32181;BME280;19172;51.504;3.894;2022-09-09T00:06:02;100594.63;;;24.60;94.92
32181;BME280;19172;51.504;3.894;2022-09-09T00:11:39;100593.59;;;24.47;94.91
32181;BME280;19172;51.504;3.894;2022-09-09T00:14:18;100593.97;;;24.41;95.43
32181;BME280;19172;51.504;3.894;2022-09-09T00:16:56;100582.13;;;24.28;94.41
32181;BME280;19172;51.504;3.894;2022-09-09T00:19:29;100578.69;;;24.40;95.44
32181;BME280;19172;51.504;3.894;2022-09-09T00:22:19;100574.25;;;24.23;95.67
32181;BME280;19172;51.504;3.894;2022-09-09T00:27:34;100567.97;;;24.07;95.56
32181;BME280;19172;51.504;3.894;2022-09-09T00:32:54;100569.22;;;24.17;97.01
32181;BME280;19172;51.504;3.894;2022-09-09T00:35:38;100567.28;;;24.19;97.10
32181;BME280;19172;51.504;3.894;2022-09-09T00:38:14;100567.38;;;23.86;96.22
32181;BME280;19172;51.504;3.894;2022-09-09T00:40:51;100557.16;;;24.07;97.38
32181;BME280;19172;51.504;3.894;2022-09-09T00:43:26;100567.78;;;24.10;98.02
32181;BME280;19172;51.504;3.894;2022-09-09T00:46:17;100552.41;;;23.96;97.52
32181;BME280;19172;51.504;3.894;2022-09-09T00:56:40;100536.34;;;24.09;97.62
32181;BME280;19172;51.504;3.894;2022-09-09T01:05:22;100531.81;;;23.94;96.17
32181;BME280;19172;51.504;3.894;2022-09-09T01:07:54;100536.53;;;23.90;95.78
32181;BME280;19172;51.504;3.894;2022-09-09T01:10:50;100520.25;;;23.92;95.34
32181;BME280;19172;51.504;3.894;2022-09-09T01:13:28;100531.28;;;23.87;94.63
32181;BME280;19172;51.504;3.894;2022-09-09T01:16:04;100517.91;;;23.86;95.29
32181;BME280;19172;51.504;3.894;2022-09-09T01:18:46;100513.91;;;23.93;95.38
32181;BME280;19172;51.504;3.894;2022-09-09T01:21:37;100515.91;;;23.89;94.90
32181;BME280;19172;51.504;3.894;2022-09-09T01:24:26;100512.75;;;23.81;94.39
32181;BME280;19172;51.504;3.894;2022-09-09T01:27:10;100508.84;;;23.87;94.28
32181;BME280;19172;51.504;3.894;2022-09-09T01:29:39;100515.28;;;23.84;93.99
32181;BME280;19172;51.504;3.894;2022-09-09T01:32:37;100506.81;;;23.90;93.80
32181;BME280;19172;51.504;3.894;2022-09-09T01:35:26;100504.06;;;23.76;93.96
32181;BME280;19172;51.504;3.894;2022-09-09T01:37:58;100501.94;;;23.81;94.48
32181;BME280;19172;51.504;3.894;2022-09-09T01:40:27;100509.28;;;23.79;95.21
32181;BME280;19172;51.504;3.894;2022-09-09T01:42:56;100509.63;;;23.73;95.32
32181;BME280;19172;51.504;3.894;2022-09-09T01:45:24;100516.16;;;23.53;95.14
32181;BME280;19172;51.504;3.894;2022-09-09T01:47:52;100505.88;;;23.60;96.28
32181;BME280;19172;51.504;3.894;2022-09-09T01:50:43;100512.84;;;23.64;96.43
32181;BME280;19172;51.504;3.894;2022-09-09T01:53:12;100503.03;;;23.30;95.89
32181;BME280;19172;51.504;3.894;2022-09-09T01:56:11;100500.88;;;23.37;95.87
32181;BME280;19172;51.504;3.894;2022-09-09T01:59:03;100491.34;;;23.14;98.14
32181;BME280;19172;51.504;3.894;2022-09-09T02:04:41;100483.19;;;23.31;97.61
32181;BME280;19172;51.504;3.894;2022-09-09T02:07:35;100489.75;;;23.43;96.99
32181;BME280;19172;51.504;3.894;2022-09-09T02:10:30;100482.88;;;23.04;96.73
32181;BME280;19172;51.504;3.894;2022-09-09T02:13:13;100478.69;;;23.32;97.24
32181;BME280;19172;51.504;3.894;2022-09-09T02:16:03;100473.28;;;23.32;95.83
32181;BME280;19172;51.504;3.894;2022-09-09T02:19:01;100466.47;;;23.09;96.33
32181;BME280;19172;51.504;3.894;2022-09-09T02:21:55;100472.63;;;23.11;97.46
32181;BME280;19172;51.504;3.894;2022-09-09T02:24:28;100470.13;;;23.24;97.05
32181;BME280;19172;51.504;3.894;2022-09-09T02:27:14;100472.00;;;23.39;96.68
32181;BME280;19172;51.504;3.894;2022-09-09T02:29:45;100469.91;;;23.44;96.45
32181;BME280;19172;51.504;3.894;2022-09-09T02:32:22;100469.06;;;23.10;94.91
32181;BME280;19172;51.504;3.894;2022-09-09T02:35:05;100465.00;;;23.35;95.05
32181;BME280;19172;51.504;3.894;2022-09-09T02:37:39;100474.69;;;23.39;95.05
32181;BME280;19172;51.504;3.894;2022-09-09T02:40:10;100464.84;;;23.38;95.25
32181;BME280;19172;51.504;3.894;2022-09-09T02:42:46;100478.63;;;23.49;95.57
32181;BME280;19172;51.504;3.894;2022-09-09T02:45:19;100471.00;;;23.24;96.53
32181;BME280;19172;51.504;3.894;2022-09-09T02:50:35;100475.59;;;23.06;97.18
32181;BME280;19172;51.504;3.894;2022-09-09T02:53:17;100483.88;;;22.86;99.24
32181;BME280;19172;51.504;3.894;2022-09-09T02:55:50;100478.56;;;22.85;98.57
32181;BME280;19172;51.504;3.894;2022-09-09T02:58:24;100476.94;;;22.98;99.33
32181;BME280;19172;51.504;3.894;2022-09-09T03:01:03;100473.53;;;22.94;99.09
32181;BME280;19172;51.504;3.894;2022-09-09T03:03:31;100473.63;;;22.93;98.45
32181;BME280;19172;51.504;3.894;2022-09-09T03:06:03;100474.63;;;23.07;98.27
32181;BME280;19172;51.504;3.894;2022-09-09T03:08:33;100469.84;;;23.12;99.13
32181;BME280;19172;51.504;3.894;2022-09-09T03:11:01;100464.81;;;23.22;97.82
32181;BME280;19172;51.504;3.894;2022-09-09T03:13:32;100456.09;;;23.17;97.26
32181;BME280;19172;51.504;3.894;2022-09-09T03:16:01;100450.53;;;23.36;96.91
32181;BME280;19172;51.504;3.894;2022-09-09T03:18:32;100453.81;;;23.42;96.54
32181;BME280;19172;51.504;3.894;2022-09-09T03:21:01;100450.31;;;23.56;94.87
32181;BME280;19172;51.504;3.894;2022-09-09T03:23:30;100444.41;;;23.49;94.21
32181;BME280;19172;51.504;3.894;2022-09-09T03:26:01;100449.19;;;23.60;95.24
32181;BME280;19172;51.504;3.894;2022-09-09T03:28:40;100450.16;;;23.43;95.67
32181;BME280;19172;51.504;3.894;2022-09-09T03:31:08;100445.09;;;23.53;96.37
32181;BME280;19172;51.504;3.894;2022-09-09T03:33:40;100441.59;;;23.19;97.74
32181;BME280;19172;51.504;3.894;2022-09-09T03:36:11;100440.78;;;23.17;98.80
32181;BME280;19172;51.504;3.894;2022-09-09T03:38:39;100430.34;;;23.11;100.00
32181;BME280;19172;51.504;3.894;2022-09-09T03:41:08;100426.16;;;22.90;100.00
32181;BME280;19172;51.504;3.894;2022-09-09T03:43:37;100434.53;;;23.17;100.00
32181;BME280;19172;51.504;3.894;2022-09-09T03:46:05;100426.69;;;22.97;100.00
32181;BME280;19172;51.504;3.894;2022-09-09T03:48:33;100429.22;;;23.15;100.00
32181;BME280;19172;51.504;3.894;2022-09-09T03:51:01;100414.28;;;23.26;100.00
32181;BME280;19172;51.504;3.894;2022-09-09T03:53:32;100422.66;;;23.04;100.00
32181;BME280;19172;51.504;3.894;2022-09-09T03:56:02;100419.78;;;22.91;100.00
32181;BME280;19172;51.504;3.894;2022-09-09T03:58:31;100415.38;;;22.90;100.00
32181;BME280;19172;51.504;3.894;2022-09-09T04:01:07;100411.59;;;22.77;100.00
32181;BME280;19172;51.504;3.894;2022-09-09T04:03:39;100406.91;;;22.81;100.00
32181;BME280;19172;51.504;3.894;2022-09-09T04:06:09;100407.69;;;22.83;100.00
32181;BME280;19172;51.504;3.894;2022-09-09T04:08:39;100399.97;;;22.92;100.00
32181;BME280;19172;51.504;3.894;2022-09-09T04:11:08;100399.09;;;22.59;100.00
32181;BME280;19172;51.504;3.894;2022-09-09T04:13:38;100398.03;;;22.94;100.00
32181;BME280;19172;51.504;3.894;2022-09-09T04:16:10;100395.34;;;22.94;100.00
32181;BME280;19172;51.504;3.894;2022-09-09T04:18:39;100383.56;;;23.12;100.00
32181;BME280;19172;51.504;3.894;2022-09-09T04:21:09;100380.75;;;23.14;100.00
32181;BME280;19172;51.504;3.894;2022-09-09T04:23:40;100379.28;;;23.08;100.00
32181;BME280;19172;51.504;3.894;2022-09-09T04:26:08;100377.34;;;23.10;100.00
32181;BME280;19172;51.504;3.894;2022-09-09T04:28:37;100374.66;;;23.10;100.00
32181;BME280;19172;51.504;3.894;2022-09-09T04:31:20;100366.81;;;22.57;100.00
32181;BME280;19172;51.504;3.894;2022-09-09T04:33:53;100366.91;;;22.56;100.00
32181;BME280;19172;51.504;3.894;2022-09-09T04:36:22;100366.59;;;22.62;100.00
32181;BME280;19172;51.504;3.894;2022-09-09T04:38:54;100359.84;;;22.53;100.00
32181;BME280;19172;51.504;3.894;2022-09-09T04:41:21;100357.75;;;22.43;100.00
32181;BME280;19172;51.504;3.894;2022-09-09T04:43:52;100357.09;;;22.55;100.00
32181;BME280;19172;51.504;3.894;2022-09-09T04:46:22;100356.69;;;22.30;100.00
32181;BME280;19172;51.504;3.894;2022-09-09T04:48:51;100357.97;;;22.55;100.00
32181;BME280;19172;51.504;3.894;2022-09-09T04:51:22;100353.31;;;22.42;100.00
32181;BME280;19172;51.504;3.894;2022-09-09T04:53:51;100354.25;;;21.91;100.00
32181;BME280;19172;51.504;3.894;2022-09-09T04:56:21;100353.50;;;22.22;100.00
32181;BME280;19172;51.504;3.894;2022-09-09T04:58:55;100347.50;;;21.99;100.00
32181;BME280;19172;51.504;3.894;2022-09-09T05:01:31;100347.53;;;21.46;100.00
32181;BME280;19172;51.504;3.894;2022-09-09T05:04:03;100357.63;;;22.11;100.00
32181;BME280;19172;51.504;3.894;2022-09-09T05:06:33;100354.88;;;22.13;100.00
32181;BME280;19172;51.504;3.894;2022-09-09T05:09:02;100359.25;;;21.98;100.00
32181;BME280;19172;51.504;3.894;2022-09-09T05:11:32;100359.94;;;22.02;100.00
32181;BME280;19172;51.504;3.894;2022-09-09T05:14:06;100353.81;;;22.15;100.00
32181;BME280;19172;51.504;3.894;2022-09-09T05:16:36;100360.56;;;22.57;100.00
32181;BME280;19172;51.504;3.894;2022-09-09T05:19:04;100355.47;;;22.18;100.00
32181;BME280;19172;51.504;3.894;2022-09-09T05:21:43;100352.72;;;21.85;100.00
32181;BME280;19172;51.504;3.894;2022-09-09T05:24:12;100353.81;;;22.33;100.00
32181;BME280;19172;51.504;3.894;2022-09-09T05:26:41;100355.69;;;22.31;100.00
32181;BME280;19172;51.504;3.894;2022-09-09T05:29:08;100353.66;;;22.36;100.00
32181;BME280;19172;51.504;3.894;2022-09-09T05:31:36;100352.13;;;21.97;100.00
32181;BME280;19172;51.504;3.894;2022-09-09T05:34:09;100348.00;;;22.07;100.00
32181;BME280;19172;51.504;3.894;2022-09-09T05:36:43;100348.31;;;22.01;100.00
32181;BME280;19172;51.504;3.894;2022-09-09T05:39:12;100344.72;;;22.18;100.00
32181;BME280;19172;51.504;3.894;2022-09-09T05:41:40;100339.56;;;22.46;100.00
32181;BME280;19172;51.504;3.894;2022-09-09T05:44:09;100331.84;;;21.90;100.00
32181;BME280;19172;51.504;3.894;2022-09-09T05:46:39;100335.56;;;22.38;100.00
32181;BME280;19172;51.504;3.894;2022-09-09T05:49:07;100336.00;;;22.30;100.00
32181;BME280;19172;51.504;3.894;2022-09-09T05:51:36;100331.97;;;22.54;100.00
32181;BME280;19172;51.504;3.894;2022-09-09T05:54:12;100326.72;;;22.36;100.00
32181;BME280;19172;51.504;3.894;2022-09-09T05:56:46;100319.84;;;22.30;100.00
32181;BME280;19172;51.504;3.894;2022-09-09T05:59:18;100337.84;;;22.12;100.00
32181;BME280;19172;51.504;3.894;2022-09-09T06:01:46;100337.88;;;22.61;100.00
32181;BME280;19172;51.504;3.894;2022-09-09T06:04:22;100335.16;;;22.45;100.00
32181;BME280;19172;51.504;3.894;2022-09-09T06:06:50;100345.50;;;22.70;100.00
32181;BME280;19172;51.504;3.894;2022-09-09T06:09:21;100341.25;;;22.82;100.00
32181;BME280;19172;51.504;3.894;2022-09-09T06:11:49;100349.66;;;22.76;100.00
32181;BME280;19172;51.504;3.894;2022-09-09T06:14:17;100350.44;;;22.45;100.00
32181;BME280;19172;51.504;3.894;2022-09-09T06:16:51;100339.88;;;22.25;100.00
32181;BME280;19172;51.504;3.894;2022-09-09T06:19:24;100351.34;;;22.94;100.00
32181;BME280;19172;51.504;3.894;2022-09-09T06:21:56;100343.16;;;22.47;100.00
32181;BME280;19172;51.504;3.894;2022-09-09T06:24:23;100349.09;;;22.03;100.00
32181;BME280;19172;51.504;3.894;2022-09-09T06:26:51;100344.38;;;22.57;100.00
32181;BME280;19172;51.504;3.894;2022-09-09T06:29:23;100341.69;;;22.57;100.00
32181;BME280;19172;51.504;3.894;2022-09-09T06:31:52;100325.22;;;22.30;100.00
32181;BME280;19172;51.504;3.894;2022-09-09T06:34:22;100338.09;;;22.41;100.00
32181;BME280;19172;51.504;3.894;2022-09-09T06:36:54;100332.13;;;22.84;100.00
32181;BME280;19172;51.504;3.894;2022-09-09T06:39:26;100338.66;;;22.96;100.00
32181;BME280;19172;51.504;3.894;2022-09-09T06:41:55;100336.75;;;23.29;100.00
32181;BME280;19172;51.504;3.894;2022-09-09T06:44:43;100329.84;;;22.92;100.00
32181;BME280;19172;51.504;3.894;2022-09-09T06:47:16;100328.56;;;23.15;100.00
32181;BME280;19172;51.504;3.894;2022-09-09T06:49:44;100342.81;;;23.17;100.00
32181;BME280;19172;51.504;3.894;2022-09-09T06:52:15;100327.66;;;23.46;100.00
32181;BME280;19172;51.504;3.894;2022-09-09T06:54:43;100326.38;;;23.22;99.10
32181;BME280;19172;51.504;3.894;2022-09-09T06:57:14;100324.72;;;23.19;100.00
32181;BME280;19172;51.504;3.894;2022-09-09T07:00:02;100319.50;;;23.32;100.00
32181;BME280;19172;51.504;3.894;2022-09-09T07:02:30;100325.88;;;22.99;99.35
32181;BME280;19172;51.504;3.894;2022-09-09T07:04:58;100319.97;;;22.60;100.00
32181;BME280;19172;51.504;3.894;2022-09-09T07:07:26;100326.47;;;22.89;100.00
32181;BME280;19172;51.504;3.894;2022-09-09T07:09:54;100318.47;;;23.18;99.64
32181;BME280;19172;51.504;3.894;2022-09-09T07:12:22;100317.50;;;23.19;99.57
32181;BME280;19172;51.504;3.894;2022-09-09T07:14:56;100322.41;;;22.64;100.00
32181;BME280;19172;51.504;3.894;2022-09-09T07:17:23;100323.06;;;22.70;100.00
32181;BME280;19172;51.504;3.894;2022-09-09T07:19:51;100323.34;;;22.96;100.00
32181;BME280;19172;51.504;3.894;2022-09-09T07:22:19;100323.88;;;23.03;100.00
32181;BME280;19172;51.504;3.894;2022-09-09T07:24:47;100325.66;;;23.34;100.00
32181;BME280;19172;51.504;3.894;2022-09-09T07:27:17;100334.84;;;23.00;98.70
32181;BME280;19172;51.504;3.894;2022-09-09T07:29:47;100345.63;;;23.00;100.00
32181;BME280;19172;51.504;3.894;2022-09-09T07:32:16;100335.50;;;22.72;99.60
32181;BME280;19172;51.504;3.894;2022-09-09T07:34:45;100332.88;;;23.33;100.00
32181;BME280;19172;51.504;3.894;2022-09-09T07:37:14;100344.28;;;22.91;100.00
32181;BME280;19172;51.504;3.894;2022-09-09T07:39:44;100335.50;;;23.50;100.00
32181;BME280;19172;51.504;3.894;2022-09-09T07:42:12;100334.53;;;23.67;100.00
32181;BME280;19172;51.504;3.894;2022-09-09T07:44:41;100333.00;;;23.77;98.36
32181;BME280;19172;51.504;3.894;2022-09-09T07:47:15;100336.63;;;23.31;95.62
32181;BME280;19172;51.504;3.894;2022-09-09T07:49:47;100341.97;;;23.78;95.30
32181;BME280;19172;51.504;3.894;2022-09-09T07:52:21;100342.72;;;23.50;94.19
32181;BME280;19172;51.504;3.894;2022-09-09T07:54:53;100337.22;;;23.67;95.46
32181;BME280;19172;51.504;3.894;2022-09-09T07:57:21;100337.66;;;23.59;96.14
32181;BME280;19172;51.504;3.894;2022-09-09T07:59:51;100333.06;;;23.30;98.26
32181;BME280;19172;51.504;3.894;2022-09-09T08:02:20;100346.81;;;23.57;100.00
32181;BME280;19172;51.504;3.894;2022-09-09T08:04:47;100348.00;;;23.67;98.21
32181;BME280;19172;51.504;3.894;2022-09-09T08:07:17;100337.81;;;23.72;95.57
32181;BME280;19172;51.504;3.894;2022-09-09T08:09:50;100348.09;;;23.95;96.17
32181;BME280;19172;51.504;3.894;2022-09-09T08:12:23;100351.75;;;23.94;94.25
32181;BME280;19172;51.504;3.894;2022-09-09T08:14:51;100354.47;;;23.02;95.70
32181;BME280;19172;51.504;3.894;2022-09-09T08:17:22;100338.47;;;23.46;98.28
32181;BME280;19172;51.504;3.894;2022-09-09T08:19:51;100351.88;;;23.32;99.82
32181;BME280;19172;51.504;3.894;2022-09-09T08:22:23;100357.00;;;23.52;99.99
32181;BME280;19172;51.504;3.894;2022-09-09T08:24:51;100343.97;;;23.13;97.43
32181;BME280;19172;51.504;3.894;2022-09-09T08:27:19;100350.56;;;23.54;97.37
32181;BME280;19172;51.504;3.894;2022-09-09T08:29:48;100357.66;;;23.71;96.22
32181;BME280;19172;51.504;3.894;2022-09-09T08:32:16;100361.63;;;23.50;96.21
32181;BME280;19172;51.504;3.894;2022-09-09T08:34:46;100368.66;;;23.21;95.73
32181;BME280;19172;51.504;3.894;2022-09-09T08:37:20;100364.84;;;22.94;95.92
32181;BME280;19172;51.504;3.894;2022-09-09T08:39:47;100354.44;;;23.64;96.50
32181;BME280;19172;51.504;3.894;2022-09-09T08:42:31;100359.63;;;23.53;94.25
32181;BME280;19172;51.504;3.894;2022-09-09T08:48:17;100369.44;;;23.39;95.78
32181;BME280;19172;51.504;3.894;2022-09-09T08:50:51;100369.00;;;23.31;97.62
32181;BME280;19172;51.504;3.894;2022-09-09T08:53:40;100357.81;;;23.07;99.19
32181;BME280;19172;51.504;3.894;2022-09-09T08:56:15;100364.31;;;23.50;98.60
32181;BME280;19172;51.504;3.894;2022-09-09T08:58:50;100362.50;;;23.19;97.75
32181;BME280;19172;51.504;3.894;2022-09-09T09:01:41;100365.53;;;23.13;99.26
32181;BME280;19172;51.504;3.894;2022-09-09T09:07:18;100374.94;;;23.53;99.10
32181;BME280;19172;51.504;3.894;2022-09-09T09:10:33;100381.19;;;23.69;98.26
32181;BME280;19172;51.504;3.894;2022-09-09T09:13:18;100367.59;;;23.39;96.92
32181;BME280;19172;51.504;3.894;2022-09-09T09:15:56;100371.19;;;23.24;99.94
32181;BME280;19172;51.504;3.894;2022-09-09T09:18:26;100369.38;;;23.25;97.90
32181;BME280;19172;51.504;3.894;2022-09-09T09:23:44;100396.75;;;23.33;100.00
32181;BME280;19172;51.504;3.894;2022-09-09T09:26:13;100389.28;;;23.06;100.00
32181;BME280;19172;51.504;3.894;2022-09-09T09:28:42;100399.91;;;23.72;100.00
32181;BME280;19172;51.504;3.894;2022-09-09T09:31:19;100389.78;;;23.76;97.66
32181;BME280;19172;51.504;3.894;2022-09-09T09:33:50;100388.66;;;23.80;97.35
32181;BME280;19172;51.504;3.894;2022-09-09T09:36:53;100393.81;;;23.98;96.15
32181;BME280;19172;51.504;3.894;2022-09-09T09:42:13;100401.63;;;23.73;96.19
32181;BME280;19172;51.504;3.894;2022-09-09T09:44:45;100390.25;;;23.98;95.37
32181;BME280;19172;51.504;3.894;2022-09-09T09:47:21;100396.63;;;23.51;96.72
32181;BME280;19172;51.504;3.894;2022-09-09T09:50:00;100393.72;;;24.00;96.99
32181;BME280;19172;51.504;3.894;2022-09-09T09:52:33;100395.59;;;24.57;97.64
32181;BME280;19172;51.504;3.894;2022-09-09T09:55:04;100395.72;;;24.56;95.08
32181;BME280;19172;51.504;3.894;2022-09-09T09:57:42;100394.00;;;24.97;92.58
32181;BME280;19172;51.504;3.894;2022-09-09T10:00:15;100397.81;;;24.51;90.92
32181;BME280;19172;51.504;3.894;2022-09-09T10:02:50;100395.28;;;24.48;90.76
32181;BME280;19172;51.504;3.894;2022-09-09T10:05:29;100397.84;;;24.93;90.36
32181;BME280;19172;51.504;3.894;2022-09-09T10:10:42;100395.03;;;24.66;89.24
32181;BME280;19172;51.504;3.894;2022-09-09T10:13:29;100402.03;;;24.27;90.31
32181;BME280;19172;51.504;3.894;2022-09-09T10:16:19;100391.72;;;25.18;90.54
32181;BME280;19172;51.504;3.894;2022-09-09T10:19:02;100403.47;;;24.90;88.96
32181;BME280;19172;51.504;3.894;2022-09-09T10:24:33;100396.63;;;24.85;89.15
32181;BME280;19172;51.504;3.894;2022-09-09T10:32:37;100383.56;;;24.63;97.63
32181;BME280;19172;51.504;3.894;2022-09-09T10:54:59;100397.13;;;25.18;100.00
32181;BME280;19172;51.504;3.894;2022-09-09T11:00:16;100402.97;;;24.84;100.00
32181;BME280;19172;51.504;3.894;2022-09-09T11:02:53;100399.72;;;24.20;100.00
32181;BME280;19172;51.504;3.894;2022-09-09T11:05:41;100388.91;;;24.35;100.00
32181;BME280;19172;51.504;3.894;2022-09-09T11:19:09;100416.59;;;23.79;100.00
32181;BME280;19172;51.504;3.894;2022-09-09T11:21:46;100413.88;;;23.94;100.00
32181;BME280;19172;51.504;3.894;2022-09-09T11:24:36;100412.59;;;23.86;100.00
32181;BME280;19172;51.504;3.894;2022-09-09T11:27:15;100425.59;;;23.16;100.00
32181;BME280;19172;51.504;3.894;2022-09-09T11:30:17;100440.81;;;23.64;100.00
32181;BME280;19172;51.504;3.894;2022-09-09T11:33:18;100441.50;;;23.84;100.00
32181;BME280;19172;51.504;3.894;2022-09-09T11:36:40;100443.94;;;23.88;100.00
32181;BME280;19172;51.504;3.894;2022-09-09T11:38:50;100438.25;;;23.47;100.00
32181;BME280;19172;51.504;3.894;2022-09-09T11:41:20;100436.66;;;22.62;100.00
32181;BME280;19172;51.504;3.894;2022-09-09T11:43:51;100440.44;;;23.08;100.00
32181;BME280;19172;51.504;3.894;2022-09-09T11:46:31;100455.13;;;23.51;100.00
32181;BME280;19172;51.504;3.894;2022-09-09T11:49:03;100451.75;;;23.14;100.00
32181;BME280;19172;51.504;3.894;2022-09-09T11:51:33;100458.78;;;23.17;100.00
32181;BME280;19172;51.504;3.894;2022-09-09T11:54:25;100461.28;;;22.89;100.00
32181;BME280;19172;51.504;3.894;2022-09-09T11:56:50;100458.50;;;22.90;100.00
32181;BME280;19172;51.504;3.894;2022-09-09T11:59:30;100466.63;;;23.54;100.00
32181;BME280;19172;51.504;3.894;2022-09-09T12:05:10;100456.19;;;23.00;100.00
32181;BME280;19172;51.504;3.894;2022-09-09T12:07:52;100473.81;;;23.38;100.00
32181;BME280;19172;51.504;3.894;2022-09-09T12:10:27;100473.84;;;23.54;100.00
32181;BME280;19172;51.504;3.894;2022-09-09T12:13:17;100480.72;;;23.59;100.00
32181;BME280;19172;51.504;3.894;2022-09-09T12:15:48;100475.78;;;23.97;100.00
32181;BME280;19172;51.504;3.894;2022-09-09T12:29:24;100501.97;;;23.33;100.00
32181;BME280;19172;51.504;3.894;2022-09-09T12:32:15;100501.19;;;23.48;100.00
32181;BME280;19172;51.504;3.894;2022-09-09T12:34:55;100493.25;;;23.45;100.00
32181;BME280;19172;51.504;3.894;2022-09-09T12:40:00;100495.09;;;23.76;100.00
32181;BME280;19172;51.504;3.894;2022-09-09T12:42:30;100500.56;;;23.74;100.00
32181;BME280;19172;51.504;3.894;2022-09-09T12:45:22;100507.66;;;24.06;100.00
32181;BME280;19172;51.504;3.894;2022-09-09T12:48:03;100516.50;;;23.94;100.00
32181;BME280;19172;51.504;3.894;2022-09-09T12:50:36;100522.66;;;23.49;100.00
32181;BME280;19172;51.504;3.894;2022-09-09T12:53:12;100540.09;;;23.75;100.00
32181;BME280;19172;51.504;3.894;2022-09-09T12:55:51;100546.38;;;22.77;100.00
32181;BME280;19172;51.504;3.894;2022-09-09T12:58:20;100537.16;;;22.64;100.00
32181;BME280;19172;51.504;3.894;2022-09-09T13:00:51;100524.25;;;22.88;100.00
32181;BME280;19172;51.504;3.894;2022-09-09T13:03:20;100525.91;;;22.90;100.00
32181;BME280;19172;51.504;3.894;2022-09-09T13:05:49;100526.34;;;22.98;100.00
32181;BME280;19172;51.504;3.894;2022-09-09T13:08:17;100527.41;;;23.29;100.00
32181;BME280;19172;51.504;3.894;2022-09-09T13:13:40;100526.94;;;22.88;100.00
32181;BME280;19172;51.504;3.894;2022-09-09T13:18:48;100529.34;;;23.42;100.00
32181;BME280;19172;51.504;3.894;2022-09-09T13:21:17;100522.44;;;23.37;100.00
32181;BME280;19172;51.504;3.894;2022-09-09T13:23:49;100527.44;;;23.11;100.00
32181;BME280;19172;51.504;3.894;2022-09-09T13:26:27;100526.72;;;23.74;100.00
32181;BME280;19172;51.504;3.894;2022-09-09T13:29:08;100526.00;;;23.86;100.00
32181;BME280;19172;51.504;3.894;2022-09-09T13:31:42;100525.66;;;23.92;100.00
32181;BME280;19172;51.504;3.894;2022-09-09T13:34:13;100521.69;;;24.29;100.00
32181;BME280;19172;51.504;3.894;2022-09-09T13:36:47;100521.66;;;24.44;100.00
32181;BME280;19172;51.504;3.894;2022-09-09T13:39:17;100518.94;;;24.44;100.00
32181;BME280;19172;51.504;3.894;2022-09-09T13:41:47;100523.06;;;24.36;100.00
32181;BME280;19172;51.504;3.894;2022-09-09T13:44:39;100523.34;;;24.61;100.00
32181;BME280;19172;51.504;3.894;2022-09-09T13:49:37;100538.88;;;24.28;100.00
32181;BME280;19172;51.504;3.894;2022-09-09T13:52:11;100526.66;;;24.80;100.00
32181;BME280;19172;51.504;3.894;2022-09-09T13:54:40;100528.59;;;24.78;100.00
32181;BME280;19172;51.504;3.894;2022-09-09T13:57:19;100524.78;;;24.96;100.00
32181;BME280;19172;51.504;3.894;2022-09-09T13:59:48;100523.66;;;25.00;100.00
32181;BME280;19172;51.504;3.894;2022-09-09T14:02:32;100523.56;;;25.16;100.00
32181;BME280;19172;51.504;3.894;2022-09-09T14:05:01;100524.63;;;25.13;100.00
32181;BME280;19172;51.504;3.894;2022-09-09T14:07:28;100520.06;;;24.86;100.00
32181;BME280;19172;51.504;3.894;2022-09-09T14:09:56;100521.31;;;24.64;100.00
32181;BME280;19172;51.504;3.894;2022-09-09T14:12:24;100527.16;;;24.43;100.00
32181;BME280;19172;51.504;3.894;2022-09-09T14:14:52;100522.75;;;24.26;100.00
32181;BME280;19172;51.504;3.894;2022-09-09T14:17:19;100529.28;;;24.22;100.00
32181;BME280;19172;51.504;3.894;2022-09-09T14:19:47;100530.31;;;24.35;100.00
32181;BME280;19172;51.504;3.894;2022-09-09T14:22:15;100533.34;;;24.15;100.00
32181;BME280;19172;51.504;3.894;2022-09-09T14:24:42;100534.19;;;24.75;100.00
32181;BME280;19172;51.504;3.894;2022-09-09T14:27:10;100527.56;;;24.51;100.00
32181;BME280;19172;51.504;3.894;2022-09-09T14:29:38;100540.50;;;24.75;100.00
32181;BME280;19172;51.504;3.894;2022-09-09T14:32:06;100549.41;;;24.32;100.00
32181;BME280;19172;51.504;3.894;2022-09-09T14:34:38;100552.44;;;24.42;100.00
32181;BME280;19172;51.504;3.894;2022-09-09T14:37:06;100541.75;;;24.09;100.00
32181;BME280;19172;51.504;3.894;2022-09-09T14:39:33;100548.81;;;24.27;100.00
32181;BME280;19172;51.504;3.894;2022-09-09T14:42:01;100543.75;;;24.05;100.00
32181;BME280;19172;51.504;3.894;2022-09-09T14:44:29;100546.53;;;23.57;100.00
32181;BME280;19172;51.504;3.894;2022-09-09T14:46:57;100543.13;;;23.53;100.00
32181;BME280;19172;51.504;3.894;2022-09-09T14:49:26;100547.84;;;23.97;100.00
32181;BME280;19172;51.504;3.894;2022-09-09T14:51:53;100555.28;;;24.25;100.00
32181;BME280;19172;51.504;3.894;2022-09-09T14:54:21;100556.16;;;24.55;100.00
32181;BME280;19172;51.504;3.894;2022-09-09T14:56:50;100553.91;;;24.77;100.00
32181;BME280;19172;51.504;3.894;2022-09-09T14:59:18;100552.91;;;24.64;100.00
32181;BME280;19172;51.504;3.894;2022-09-09T15:01:45;100563.38;;;24.09;100.00
32181;BME280;19172;51.504;3.894;2022-09-09T15:04:13;100551.44;;;24.58;100.00
32181;BME280;19172;51.504;3.894;2022-09-09T15:06:42;100549.19;;;24.51;100.00
32181;BME280;19172;51.504;3.894;2022-09-09T15:09:12;100553.41;;;24.09;100.00